createdAt,value
2022-10-19T00:01:28.169Z,22.76
2022-10-19T00:04:16.867Z,22.78
2022-10-19T00:07:05.787Z,22.73
2022-10-19T00:09:54.876Z,22.70
2022-10-19T00:12:43.935Z,22.71
2022-10-19T00:15:33.192Z,22.71
2022-10-19T00:18:16.941Z,22.68
2022-10-19T00:21:05.750Z,22.67
2022-10-19T00:23:54.936Z,22.67
2022-10-19T00:26:37.163Z,22.54
2022-10-19T00:29:27.874Z,22.44
2022-10-19T00:32:10.147Z,22.62
2022-10-19T00:34:59.882Z,22.59
2022-10-19T00:37:42.144Z,22.59
2022-10-19T00:40:30.863Z,22.60
2022-10-19T00:43:25.435Z,22.65
2022-10-19T00:46:13.862Z,22.52
2022-10-19T00:49:10.775Z,22.54
2022-10-19T00:51:57.146Z,22.56
2022-10-19T00:54:47.936Z,22.60
2022-10-19T00:57:32.182Z,22.63
2022-10-19T01:00:22.519Z,22.57
2022-10-19T01:03:09.661Z,22.63
2022-10-19T01:06:02.303Z,22.63
2022-10-19T01:09:01.221Z,22.67
2022-10-19T01:12:08.182Z,22.59
2022-10-19T01:15:17.161Z,22.58
2022-10-19T01:18:43.328Z,22.50
2022-10-19T01:21:45.617Z,22.69
2022-10-19T01:24:47.308Z,22.45
2022-10-19T01:28:03.603Z,22.60
2022-10-19T01:31:09.331Z,22.69
2022-10-19T01:34:51.459Z,22.64
2022-10-19T01:37:43.035Z,22.72
2022-10-19T01:40:55.274Z,22.62
2022-10-19T01:44:14.538Z,22.81
2022-10-19T01:47:10.167Z,22.96
2022-10-19T01:50:11.303Z,22.71
2022-10-19T01:52:59.512Z,22.76
2022-10-19T01:55:47.938Z,22.80
2022-10-19T01:58:53.287Z,22.96
2022-10-19T02:02:01.685Z,22.98
2022-10-19T02:04:54.000Z,23.01
2022-10-19T02:07:49.357Z,23.01
2022-10-19T02:10:41.445Z,23.19
2022-10-19T02:13:33.219Z,23.11
2022-10-19T02:16:33.803Z,23.22
2022-10-19T02:19:29.367Z,23.23
2022-10-19T02:22:26.373Z,23.38
2022-10-19T02:25:10.666Z,23.32
2022-10-19T02:28:07.285Z,23.52
2022-10-19T02:30:55.203Z,23.56
2022-10-19T02:33:50.253Z,23.64
2022-10-19T02:36:43.202Z,23.72
2022-10-19T02:39:32.144Z,23.89
2022-10-19T02:43:09.265Z,23.81
2022-10-19T02:46:10.519Z,24.07
2022-10-19T02:49:00.753Z,23.93
2022-10-19T02:52:14.375Z,24.18
2022-10-19T02:54:58.717Z,23.94
2022-10-19T02:57:53.234Z,24.34
2022-10-19T03:03:59.675Z,24.39
2022-10-19T03:06:49.415Z,24.42
2022-10-19T03:09:41.099Z,24.72
2022-10-19T03:12:38.163Z,24.54
2022-10-19T03:15:34.172Z,24.34
2022-10-19T03:18:30.298Z,24.92
2022-10-19T03:21:23.648Z,24.98
2022-10-19T03:24:21.297Z,25.02
2022-10-19T03:27:26.938Z,25.33
2022-10-19T03:30:40.232Z,25.56
2022-10-19T03:33:33.283Z,25.65
2022-10-19T03:36:37.847Z,25.63
2022-10-19T03:39:39.096Z,25.74
2022-10-19T03:42:28.771Z,25.71
2022-10-19T03:45:31.672Z,25.89
2022-10-19T03:48:18.845Z,26.25
2022-10-19T03:51:21.872Z,26.07
2022-10-19T03:54:26.498Z,26.16
2022-10-19T03:57:14.480Z,26.54
2022-10-19T04:00:03.828Z,26.63
2022-10-19T04:02:57.240Z,26.89
2022-10-19T04:11:54.310Z,27.01
2022-10-19T04:14:56.774Z,27.75
2022-10-19T04:17:50.301Z,27.77
2022-10-19T04:20:39.863Z,28.01
2022-10-19T04:23:35.241Z,28.57
2022-10-19T04:26:22.153Z,28.95
2022-10-19T04:29:15.934Z,28.97
2022-10-19T04:32:05.792Z,28.73
2022-10-19T04:35:02.562Z,29.19
2022-10-19T04:38:02.037Z,29.63
2022-10-19T04:40:58.999Z,29.91
2022-10-19T04:43:46.458Z,30.07
2022-10-19T04:46:42.278Z,30.34
2022-10-19T04:49:40.300Z,30.58
2022-10-19T04:52:28.918Z,30.68
2022-10-19T04:55:29.078Z,30.95
2022-10-19T04:58:47.475Z,30.69
2022-10-19T05:04:50.504Z,31.32
2022-10-19T05:07:53.296Z,31.31
2022-10-19T05:10:58.660Z,31.55
2022-10-19T05:14:11.172Z,31.60
2022-10-19T05:20:16.538Z,31.88
2022-10-19T05:23:16.651Z,31.55
2022-10-19T05:26:15.788Z,31.95
2022-10-19T05:29:12.334Z,31.86
2022-10-19T05:31:59.794Z,32.07
2022-10-19T05:34:52.201Z,32.27
2022-10-19T05:37:52.308Z,31.94
2022-10-19T05:40:50.369Z,32.26
2022-10-19T05:43:52.373Z,32.03
2022-10-19T05:46:59.608Z,32.30
2022-10-19T05:53:03.916Z,33.00
2022-10-19T06:02:59.169Z,32.46
2022-10-19T06:05:57.839Z,32.90
2022-10-19T06:08:54.289Z,32.37
2022-10-19T06:12:12.149Z,32.53
2022-10-19T06:15:18.724Z,32.62
2022-10-19T06:18:18.836Z,32.74
2022-10-19T06:21:28.586Z,32.90
2022-10-19T06:24:20.906Z,32.43
2022-10-19T06:27:19.133Z,32.60
2022-10-19T06:30:21.752Z,32.41
2022-10-19T06:33:17.051Z,32.76
2022-10-19T06:36:34.273Z,32.98
2022-10-19T06:39:30.344Z,33.37
2022-10-19T06:42:30.120Z,33.16
2022-10-19T06:45:24.532Z,33.10
2022-10-19T06:51:31.714Z,33.21
2022-10-19T06:54:43.936Z,33.13
2022-10-19T07:00:51.752Z,33.39
2022-10-19T07:06:54.150Z,33.06
2022-10-19T07:10:06.155Z,32.83
2022-10-19T07:13:33.071Z,33.00
2022-10-19T07:16:39.868Z,33.33
2022-10-19T07:19:37.794Z,32.52
2022-10-19T07:22:32.760Z,33.04
2022-10-19T07:25:25.753Z,33.07
2022-10-19T07:28:20.421Z,33.32
2022-10-19T07:31:24.270Z,33.01
2022-10-19T07:34:29.040Z,32.86
2022-10-19T07:37:26.153Z,33.11
2022-10-19T07:40:19.593Z,32.73
2022-10-19T07:43:18.074Z,33.03
2022-10-19T07:46:22.698Z,33.00
2022-10-19T07:49:11.448Z,33.06
2022-10-19T07:52:12.119Z,32.63
2022-10-19T07:58:06.211Z,32.68
2022-10-19T08:01:03.763Z,32.89
2022-10-19T08:07:05.116Z,32.40
2022-10-19T08:13:11.094Z,32.51
2022-10-19T08:16:16.030Z,32.11
2022-10-19T08:19:14.834Z,32.75
2022-10-19T08:22:00.968Z,32.56
2022-10-19T08:25:06.324Z,32.88
2022-10-19T08:31:02.255Z,32.56
2022-10-19T08:34:10.511Z,32.42
2022-10-19T08:37:20.111Z,32.46
2022-10-19T08:43:44.740Z,32.28
2022-10-19T08:46:51.687Z,32.78
2022-10-19T08:49:35.765Z,32.72
2022-10-19T08:52:35.556Z,32.94
2022-10-19T08:55:28.471Z,32.69
2022-10-19T08:58:49.819Z,32.65
2022-10-19T09:01:55.105Z,32.95
2022-10-19T09:05:04.816Z,32.66
2022-10-19T09:07:58.136Z,32.82
2022-10-19T09:11:02.225Z,32.99
2022-10-19T09:14:05.966Z,32.91
2022-10-19T09:16:59.834Z,32.81
2022-10-19T09:19:45.800Z,32.81
2022-10-19T09:22:48.678Z,32.71
2022-10-19T09:25:41.651Z,32.51
2022-10-19T09:28:51.282Z,32.07
2022-10-19T09:31:49.867Z,32.53
2022-10-19T09:34:49.680Z,32.56
2022-10-19T09:37:57.696Z,32.53
2022-10-19T09:40:51.353Z,32.39
2022-10-19T09:43:42.660Z,32.43
2022-10-19T09:47:05.265Z,32.44
2022-10-19T09:53:23.154Z,32.24
2022-10-19T09:59:31.775Z,32.24
2022-10-19T10:02:48.494Z,32.18
2022-10-19T10:06:00.693Z,32.24
2022-10-19T10:12:10.219Z,32.22
2022-10-19T10:15:10.924Z,32.12
2022-10-19T10:18:00.527Z,32.04
2022-10-19T10:21:18.038Z,32.21
2022-10-19T10:24:17.717Z,32.13
2022-10-19T10:27:12.957Z,32.10
2022-10-19T10:30:05.671Z,32.19
2022-10-19T10:33:04.716Z,31.89
2022-10-19T10:36:21.490Z,31.91
2022-10-19T10:39:21.010Z,31.89
2022-10-19T10:42:21.712Z,31.71
2022-10-19T10:45:10.264Z,31.62
2022-10-19T10:48:31.887Z,31.44
2022-10-19T10:52:00.214Z,31.66
2022-10-19T10:55:15.287Z,31.21
2022-10-19T10:58:44.883Z,31.50
2022-10-19T11:01:35.575Z,31.22
2022-10-19T11:08:44.873Z,31.26
2022-10-19T11:12:04.760Z,31.17
2022-10-19T11:15:12.806Z,30.71
2022-10-19T11:22:06.977Z,31.17
2022-10-19T11:25:10.520Z,31.05
2022-10-19T11:28:22.679Z,31.14
2022-10-19T11:31:52.467Z,30.93
2022-10-19T11:35:15.748Z,30.87
2022-10-19T11:38:33.784Z,30.48
2022-10-19T11:41:39.475Z,30.68
2022-10-19T11:44:58.808Z,30.58
2022-10-19T11:48:13.425Z,30.54
2022-10-19T11:51:22.951Z,30.50
2022-10-19T11:54:35.748Z,30.36
2022-10-19T11:57:47.280Z,30.28
2022-10-19T12:00:40.054Z,30.23
2022-10-19T12:03:45.852Z,30.10
2022-10-19T12:07:08.339Z,30.01
2022-10-19T12:10:41.368Z,29.82
2022-10-19T12:14:11.770Z,29.70
2022-10-19T12:17:24.920Z,29.57
2022-10-19T12:20:43.033Z,29.50
2022-10-19T12:24:00.485Z,29.60
2022-10-19T12:27:07.400Z,29.63
2022-10-19T12:29:58.675Z,29.42
2022-10-19T12:33:15.630Z,29.48
2022-10-19T12:37:00.910Z,29.44
2022-10-19T12:40:19.935Z,29.38
2022-10-19T12:44:13.349Z,29.15
2022-10-19T12:47:43.551Z,29.13
2022-10-19T12:51:06.007Z,29.06
2022-10-19T12:54:20.026Z,28.81
2022-10-19T12:57:25.304Z,28.69
2022-10-19T13:00:53.772Z,28.67
2022-10-19T13:03:52.146Z,28.40
2022-10-19T13:07:07.044Z,28.38
2022-10-19T13:09:55.122Z,28.29
2022-10-19T13:16:15.727Z,28.21
2022-10-19T13:19:19.839Z,28.12
2022-10-19T13:25:46.802Z,28.07
2022-10-19T13:29:08.692Z,28.06
2022-10-19T13:32:22.368Z,27.97
2022-10-19T13:35:43.264Z,27.94
2022-10-19T13:42:05.552Z,27.80
2022-10-19T13:45:02.148Z,27.84
2022-10-19T13:51:18.229Z,27.79
2022-10-19T13:54:52.092Z,27.76
2022-10-19T13:59:01.873Z,27.75
2022-10-19T14:02:32.878Z,27.73
2022-10-19T14:06:02.631Z,27.65
2022-10-19T14:09:12.503Z,27.65
2022-10-19T14:12:07.705Z,27.59
2022-10-19T14:18:19.220Z,27.60
2022-10-19T14:21:20.354Z,27.57
2022-10-19T14:24:11.821Z,27.53
2022-10-19T14:27:05.853Z,27.49
2022-10-19T14:30:01.578Z,27.40
2022-10-19T14:32:44.851Z,27.36
2022-10-19T14:35:33.756Z,27.36
2022-10-19T14:38:31.794Z,27.28
2022-10-19T14:41:39.475Z,27.26
2022-10-19T14:44:55.689Z,27.25
2022-10-19T14:47:38.426Z,27.21
2022-10-19T14:50:30.195Z,27.11
2022-10-19T14:53:35.550Z,27.15
2022-10-19T14:56:38.156Z,27.09
2022-10-19T14:59:27.282Z,27.08
2022-10-19T15:02:26.814Z,27.02
2022-10-19T15:05:29.192Z,27.03
2022-10-19T15:08:34.000Z,27.06
2022-10-19T15:11:30.960Z,27.01
2022-10-19T15:14:30.839Z,26.98
2022-10-19T15:17:32.197Z,27.03
2022-10-19T15:21:01.191Z,26.98
2022-10-19T15:23:56.359Z,26.99
2022-10-19T15:26:41.752Z,26.97
2022-10-19T15:29:37.753Z,26.97
2022-10-19T15:32:25.378Z,26.92
2022-10-19T15:35:44.700Z,26.97
2022-10-19T15:38:36.258Z,26.88
2022-10-19T15:41:36.767Z,26.88
2022-10-19T15:44:58.413Z,26.92
2022-10-19T15:48:08.848Z,26.83
2022-10-19T15:50:54.201Z,26.78
2022-10-19T15:53:43.764Z,26.75
2022-10-19T15:56:27.305Z,26.69
2022-10-19T15:59:24.025Z,26.70
2022-10-19T16:02:09.292Z,26.65
2022-10-19T16:05:01.753Z,26.63
2022-10-19T16:07:47.380Z,26.61
2022-10-19T16:10:37.762Z,26.62
2022-10-19T16:13:20.222Z,26.50
2022-10-19T16:16:14.816Z,26.63
2022-10-19T16:19:04.705Z,26.53
2022-10-19T16:21:54.143Z,26.51
2022-10-19T16:24:37.698Z,26.46
2022-10-19T16:27:27.733Z,26.48
2022-10-19T16:30:17.222Z,26.56
2022-10-19T16:33:16.070Z,26.45
2022-10-19T16:35:59.919Z,26.45
2022-10-19T16:38:50.757Z,26.38
2022-10-19T16:41:40.693Z,26.37
2022-10-19T16:44:32.218Z,26.34
2022-10-19T16:47:17.092Z,26.34
2022-10-19T16:50:08.399Z,26.40
2022-10-19T16:52:51.753Z,26.26
2022-10-19T16:55:41.438Z,26.23
2022-10-19T16:58:24.783Z,26.15
2022-10-19T17:01:24.799Z,26.11
2022-10-19T17:04:07.854Z,26.16
2022-10-19T17:06:59.191Z,26.17
2022-10-19T17:09:43.740Z,26.16
2022-10-19T17:12:35.335Z,26.11
2022-10-19T17:15:41.308Z,26.06
2022-10-19T17:18:29.127Z,26.11
2022-10-19T17:21:27.755Z,25.93
2022-10-19T17:24:22.308Z,25.83
2022-10-19T17:27:13.793Z,25.90
2022-10-19T17:30:03.149Z,25.93
2022-10-19T17:32:46.802Z,25.94
2022-10-19T17:35:36.185Z,25.85
2022-10-19T17:38:20.757Z,25.79
2022-10-19T17:41:16.249Z,25.74
2022-10-19T17:44:01.775Z,25.68
2022-10-19T17:46:51.227Z,25.57
2022-10-19T17:49:35.899Z,25.38
2022-10-19T17:52:17.870Z,25.26
2022-10-19T17:55:12.173Z,25.46
2022-10-19T17:58:04.166Z,25.49
2022-10-19T18:00:48.745Z,25.48
2022-10-19T18:03:40.291Z,25.34
2022-10-19T18:06:26.774Z,25.35
2022-10-19T18:09:11.493Z,25.42
2022-10-19T18:12:04.896Z,25.45
2022-10-19T18:14:50.762Z,25.48
2022-10-19T18:17:40.302Z,25.49
2022-10-19T18:20:30.089Z,25.54
2022-10-19T18:23:13.749Z,25.53
2022-10-19T18:25:56.875Z,25.45
2022-10-19T18:28:47.731Z,25.44
2022-10-19T18:31:34.921Z,25.49
2022-10-19T18:34:29.739Z,25.45
2022-10-19T18:37:12.584Z,25.37
2022-10-19T18:40:01.747Z,25.45
2022-10-19T18:42:51.841Z,25.56
2022-10-19T18:45:35.975Z,25.48
2022-10-19T18:48:25.657Z,25.47
2022-10-19T18:51:13.241Z,25.51
2022-10-19T18:54:04.834Z,25.39
2022-10-19T18:56:53.789Z,25.53
2022-10-19T18:59:42.828Z,25.54
2022-10-19T19:02:42.258Z,25.47
2022-10-19T19:05:29.248Z,25.58
2022-10-19T19:08:18.761Z,25.53
2022-10-19T19:11:21.953Z,25.59
2022-10-19T19:14:15.055Z,25.43
2022-10-19T19:16:58.466Z,25.33
2022-10-19T19:19:47.817Z,25.31
2022-10-19T19:22:36.974Z,25.27
2022-10-19T19:25:20.437Z,25.35
2022-10-19T19:28:09.654Z,25.40
2022-10-19T19:30:54.300Z,25.28
2022-10-19T19:33:44.852Z,25.25
2022-10-19T19:36:34.713Z,25.09
2022-10-19T19:39:29.725Z,25.02
2022-10-19T19:42:13.460Z,24.94
2022-10-19T19:45:02.779Z,24.91
2022-10-19T19:47:45.309Z,24.73
2022-10-19T19:50:36.791Z,24.71
2022-10-19T19:53:20.269Z,24.76
2022-10-19T19:56:09.782Z,24.60
2022-10-19T19:58:53.084Z,24.50
2022-10-19T20:01:45.821Z,24.48
2022-10-19T20:04:29.276Z,24.11
2022-10-19T20:07:18.787Z,24.39
2022-10-19T20:10:01.161Z,24.48
2022-10-19T20:12:55.737Z,24.68
2022-10-19T20:15:44.799Z,24.68
2022-10-19T20:18:33.721Z,24.61
2022-10-19T20:21:33.832Z,24.52
2022-10-19T20:24:16.391Z,24.49
2022-10-19T20:27:07.762Z,24.58
2022-10-19T20:29:57.677Z,24.47
2022-10-19T20:32:41.144Z,24.57
2022-10-19T20:35:30.794Z,24.58
2022-10-19T20:38:13.147Z,24.48
2022-10-19T20:41:06.902Z,24.67
2022-10-19T20:43:57.573Z,24.59
2022-10-19T20:46:47.731Z,24.63
2022-10-19T20:49:30.080Z,24.61
2022-10-19T20:52:19.799Z,24.60
2022-10-19T20:55:02.084Z,24.59
2022-10-19T20:57:51.735Z,24.61
2022-10-19T21:00:35.190Z,24.65
2022-10-19T21:03:24.750Z,24.67
2022-10-19T21:06:11.239Z,24.47
2022-10-19T21:08:54.791Z,24.49
2022-10-19T21:11:46.694Z,24.51
2022-10-19T21:14:35.211Z,24.52
2022-10-19T21:17:24.825Z,24.55
2022-10-19T21:20:21.575Z,24.52
2022-10-19T21:23:10.706Z,24.33
2022-10-19T21:26:02.034Z,24.32
2022-10-19T21:28:56.708Z,24.26
2022-10-19T21:31:51.253Z,24.25
2022-10-19T21:34:43.568Z,24.32
2022-10-19T21:37:26.649Z,24.33
2022-10-19T21:40:20.781Z,24.33
2022-10-19T21:43:10.462Z,24.22
2022-10-19T21:46:08.688Z,24.26
2022-10-19T21:48:55.252Z,24.28
2022-10-19T21:52:03.506Z,24.33
2022-10-19T21:54:49.728Z,24.30
2022-10-19T21:57:38.629Z,24.19
2022-10-19T22:00:24.390Z,24.23
2022-10-19T22:06:01.187Z,24.00
2022-10-19T22:08:55.259Z,24.19
2022-10-19T22:11:39.252Z,24.22
2022-10-19T22:14:29.649Z,24.23
2022-10-19T22:17:18.739Z,24.13
2022-10-19T22:20:14.481Z,24.38
2022-10-19T22:23:03.638Z,24.53
2022-10-19T22:25:46.194Z,24.25
2022-10-19T22:28:36.747Z,24.03
2022-10-19T22:31:21.512Z,24.21
2022-10-19T22:34:13.706Z,24.33
2022-10-19T22:36:57.166Z,24.28
2022-10-19T22:39:46.636Z,24.28
2022-10-19T22:42:29.193Z,24.38
2022-10-19T22:45:18.713Z,24.40
2022-10-19T22:48:07.648Z,24.38
2022-10-19T22:50:50.494Z,24.48
2022-10-19T22:53:40.790Z,24.29
2022-10-19T22:56:23.254Z,24.41
2022-10-19T22:59:17.791Z,24.38
2022-10-19T23:02:08.049Z,24.47
2022-10-19T23:04:51.625Z,24.30
2022-10-19T23:07:41.650Z,24.69
2022-10-19T23:10:31.636Z,24.57
2022-10-19T23:13:21.662Z,24.72
2022-10-19T23:16:10.686Z,24.33
2022-10-19T23:18:53.176Z,24.25
2022-10-19T23:21:44.431Z,24.58
2022-10-19T23:24:33.406Z,24.22
2022-10-19T23:27:29.330Z,23.99
2022-10-19T23:30:20.493Z,24.01
2022-10-19T23:33:02.872Z,23.72
2022-10-19T23:35:53.358Z,23.55
2022-10-19T23:38:35.666Z,23.82
2022-10-19T23:41:25.309Z,23.99
2022-10-19T23:44:14.352Z,23.69
2022-10-19T23:46:56.494Z,23.42
2022-10-19T23:49:45.288Z,23.51
2022-10-19T23:52:27.506Z,23.36
2022-10-19T23:55:16.367Z,23.32
2022-10-19T23:57:58.490Z,23.03
